createdAt,value
2018-05-10T00:02:09.053Z,96768.40
2018-05-10T00:04:38.775Z,96771.68
2018-05-10T00:07:09.818Z,96776.56
2018-05-10T00:09:39.614Z,96775.66
2018-05-10T00:12:10.081Z,96769.92
2018-05-10T00:14:40.484Z,96767.66
2018-05-10T00:17:10.260Z,96779.19
2018-05-10T00:19:40.808Z,96774.39
2018-05-10T00:22:10.798Z,96771.56
2018-05-10T00:24:40.309Z,96769.18
2018-05-10T00:27:10.985Z,96769.47
2018-05-10T00:29:41.213Z,96767.88
2018-05-10T00:32:10.803Z,96768.41
2018-05-10T00:34:40.299Z,96767.58
2018-05-10T00:37:09.921Z,96760.94
2018-05-10T00:39:39.775Z,96757.66
2018-05-10T00:42:09.310Z,96755.03
2018-05-10T00:44:38.921Z,96765.91
2018-05-10T00:47:09.369Z,96762.46
2018-05-10T00:49:39.096Z,96760.86
2018-05-10T00:52:08.658Z,96764.77
2018-05-10T00:54:57.974Z,96762.52
2018-05-10T00:57:28.581Z,96763.74
2018-05-10T00:59:59.647Z,96762.22
2018-05-10T01:02:30.860Z,96767.09
2018-05-10T01:05:00.682Z,96759.64
2018-05-10T01:07:31.004Z,96762.11
2018-05-10T01:10:01.260Z,96760.05
2018-05-10T01:12:30.880Z,96759.80
2018-05-10T01:15:02.007Z,96756.45
2018-05-10T01:17:35.643Z,96763.25
2018-05-10T01:20:06.602Z,96770.88
2018-05-10T01:22:41.263Z,96762.23
2018-05-10T01:25:13.217Z,96766.70
2018-05-10T01:27:42.772Z,96764.93
2018-05-10T01:30:15.945Z,96768.42
2018-05-10T01:32:46.249Z,96767.72
2018-05-10T01:35:33.738Z,96767.72
2018-05-10T01:38:03.264Z,96759.97
2018-05-10T01:40:33.215Z,96767.55
2018-05-10T01:43:02.983Z,96760.09
2018-05-10T01:45:33.000Z,96760.47
2018-05-10T01:48:02.647Z,96774.12
2018-05-10T01:50:32.277Z,96774.39
2018-05-10T01:53:01.783Z,96773.69
2018-05-10T01:55:31.877Z,96773.29
2018-05-10T01:58:01.386Z,96777.75
2018-05-10T02:00:31.053Z,96778.53
2018-05-10T02:03:00.612Z,96779.44
2018-05-10T02:05:30.198Z,96774.55
2018-05-10T02:08:00.137Z,96777.96
2018-05-10T02:10:30.359Z,96774.48
2018-05-10T02:12:59.921Z,96769.07
2018-05-10T02:15:29.647Z,96769.36
2018-05-10T02:17:59.269Z,96774.86
2018-05-10T02:20:28.781Z,96768.38
2018-05-10T02:22:58.345Z,96762.72
2018-05-10T02:25:36.182Z,96761.73
2018-05-10T02:28:07.664Z,96763.38
2018-05-10T02:30:37.448Z,96764.73
2018-05-10T02:33:07.003Z,96760.22
2018-05-10T02:35:37.749Z,96760.53
2018-05-10T02:38:07.545Z,96762.09
2018-05-10T02:40:37.851Z,96762.63
2018-05-10T02:43:08.379Z,96766.14
2018-05-10T02:45:37.922Z,96771.42
2018-05-10T02:48:08.413Z,96772.97
2018-05-10T02:50:38.022Z,96772.15
2018-05-10T02:53:07.640Z,96782.94
2018-05-10T02:55:37.434Z,96779.47
2018-05-10T02:58:07.250Z,96772.95
2018-05-10T03:00:36.808Z,96779.44
2018-05-10T03:03:06.548Z,96788.02
2018-05-10T03:05:36.174Z,96790.84
2018-05-10T03:08:06.962Z,96796.75
2018-05-10T03:10:36.656Z,96797.28
2018-05-10T03:13:06.940Z,96794.70
2018-05-10T03:15:37.481Z,96800.94
2018-05-10T03:18:07.102Z,96806.87
2018-05-10T03:20:36.713Z,96802.70
2018-05-10T03:23:06.474Z,96801.50
2018-05-10T03:25:36.322Z,96800.44
2018-05-10T03:28:07.654Z,96794.73
2018-05-10T03:30:37.484Z,96796.12
2018-05-10T03:33:07.026Z,96791.00
2018-05-10T03:35:36.603Z,96795.19
2018-05-10T03:38:06.409Z,96792.31
2018-05-10T03:40:37.073Z,96801.72
2018-05-10T03:43:06.639Z,96805.52
2018-05-10T03:45:36.395Z,96813.11
2018-05-10T03:48:07.881Z,96814.99
2018-05-10T03:50:37.475Z,96815.25
2018-05-10T03:53:07.334Z,96818.40
2018-05-10T03:55:37.356Z,96818.03
2018-05-10T03:58:07.867Z,96813.63
2018-05-10T04:00:37.552Z,96811.42
2018-05-10T04:16:56.037Z,96840.74
2018-05-10T04:19:25.738Z,96840.71
2018-05-10T04:21:56.842Z,96839.70
2018-05-10T04:24:27.092Z,96839.02
2018-05-10T04:26:56.717Z,96848.55
2018-05-10T04:29:27.589Z,96842.78
2018-05-10T04:34:49.713Z,96842.41
2018-05-10T04:37:32.192Z,96844.59
2018-05-10T04:40:01.888Z,96847.99
2018-05-10T04:42:32.880Z,96849.31
2018-05-10T04:45:03.215Z,96849.45
2018-05-10T04:47:33.839Z,96854.04
2018-05-10T04:50:03.649Z,96852.13
2018-05-10T04:52:43.412Z,96852.38
2018-05-10T04:55:15.836Z,96851.41
2018-05-10T04:57:45.342Z,96852.20
2018-05-10T05:00:14.972Z,96853.05
2018-05-10T05:02:46.582Z,96854.30
2018-05-10T05:05:16.836Z,96859.84
2018-05-10T05:07:50.176Z,96859.11
2018-05-10T05:10:19.968Z,96863.92
2018-05-10T05:13:04.747Z,96868.27
2018-05-10T05:15:34.897Z,96869.25
2018-05-10T05:18:06.298Z,96868.14
2018-05-10T05:20:37.672Z,96871.88
2018-05-10T05:23:07.987Z,96871.06
2018-05-10T05:25:38.605Z,96868.85
2018-05-10T05:28:08.220Z,96876.77
2018-05-10T05:30:37.976Z,96878.08
2018-05-10T05:33:08.419Z,96889.03
2018-05-10T05:35:38.313Z,96884.09
2018-05-10T05:38:10.276Z,96894.92
2018-05-10T05:40:40.965Z,96901.09
2018-05-10T05:43:12.689Z,96895.71
2018-05-10T05:45:42.684Z,96900.64
2018-05-10T05:48:13.295Z,96897.98
2018-05-10T05:50:43.705Z,96902.75
2018-05-10T05:53:13.632Z,96906.73
2018-05-10T05:55:48.157Z,96903.03
2018-05-10T05:58:18.570Z,96911.19
2018-05-10T06:03:23.411Z,96916.03
2018-05-10T06:05:54.872Z,96912.70
2018-05-10T06:08:27.469Z,96922.61
2018-05-10T06:11:00.529Z,96928.09
2018-05-10T06:13:33.762Z,96937.58
2018-05-10T06:16:05.444Z,96936.19
2018-05-10T06:18:41.727Z,96942.02
2018-05-10T06:21:12.182Z,96940.93
2018-05-10T06:23:48.347Z,96947.77
2018-05-10T06:29:30.370Z,96948.93
2018-05-10T06:32:03.570Z,96949.64
2018-05-10T06:37:17.212Z,96947.09
2018-05-10T06:39:46.771Z,96945.92
2018-05-10T06:42:16.494Z,96944.39
2018-05-10T06:44:46.082Z,96939.80
2018-05-10T06:47:15.627Z,96943.06
2018-05-10T06:49:45.238Z,96949.64
2018-05-10T06:52:16.649Z,96944.81
2018-05-10T06:54:46.465Z,96945.33
2018-05-10T06:57:17.034Z,96944.45
2018-05-10T06:59:46.770Z,96947.50
2018-05-10T07:02:19.986Z,96951.11
2018-05-10T07:04:51.397Z,96954.00
2018-05-10T07:07:21.903Z,96952.84
2018-05-10T07:09:51.903Z,96956.09
2018-05-10T07:12:21.485Z,96952.25
2018-05-10T07:14:51.979Z,96954.83
2018-05-10T07:17:21.692Z,96958.13
2018-05-10T07:19:52.744Z,96953.55
2018-05-10T07:22:22.576Z,96952.82
2018-05-10T07:24:53.919Z,96963.40
2018-05-10T07:27:23.817Z,96965.63
2018-05-10T07:29:53.459Z,96961.89
2018-05-10T07:32:24.684Z,96963.28
2018-05-10T07:34:54.275Z,96963.89
2018-05-10T07:37:24.011Z,96968.53
2018-05-10T07:39:53.792Z,96967.39
2018-05-10T07:42:23.581Z,96966.66
2018-05-10T07:44:53.467Z,96971.88
2018-05-10T07:47:23.269Z,96968.50
2018-05-10T07:49:52.896Z,96967.89
2018-05-10T07:52:22.566Z,96983.09
2018-05-10T07:54:52.686Z,96979.08
2018-05-10T07:57:23.483Z,96984.60
2018-05-10T07:59:53.124Z,96983.67
2018-05-10T08:02:23.437Z,96993.06
2018-05-10T08:04:54.536Z,96994.03
2018-05-10T08:07:24.842Z,96998.19
2018-05-10T08:09:56.972Z,96995.55
2018-05-10T08:12:27.208Z,96992.06
2018-05-10T08:14:56.789Z,96996.22
2018-05-10T08:17:27.052Z,96999.52
2018-05-10T08:19:58.854Z,97001.86
2018-05-10T08:22:28.361Z,97000.70
2018-05-10T08:24:57.794Z,97002.25
2018-05-10T08:27:40.766Z,97004.17
2018-05-10T08:30:12.898Z,97003.98
2018-05-10T08:32:42.708Z,96995.09
2018-05-10T08:35:13.836Z,96995.77
2018-05-10T08:37:43.397Z,97001.27
2018-05-10T08:40:12.963Z,97007.48
2018-05-10T08:42:42.468Z,97011.81
2018-05-10T08:45:12.172Z,97004.15
2018-05-10T08:47:41.874Z,97001.31
2018-05-10T08:50:11.620Z,97006.13
2018-05-10T08:52:41.218Z,97009.36
2018-05-10T08:55:11.031Z,97008.40
2018-05-10T08:57:40.581Z,97005.97
2018-05-10T09:00:10.348Z,97009.91
2018-05-10T09:02:40.066Z,97001.55
2018-05-10T09:05:09.530Z,97005.45
2018-05-10T09:07:39.821Z,97002.14
2018-05-10T09:10:10.135Z,97000.94
2018-05-10T09:12:41.142Z,97002.70
2018-05-10T09:15:11.065Z,97009.22
2018-05-10T09:17:40.873Z,97009.97
2018-05-10T09:20:10.699Z,97000.13
2018-05-10T09:22:40.237Z,96996.91
2018-05-10T09:25:09.909Z,97006.08
2018-05-10T09:27:40.414Z,97006.70
2018-05-10T09:30:10.893Z,97010.58
2018-05-10T09:32:41.722Z,97010.75
2018-05-10T09:35:11.357Z,97006.41
2018-05-10T09:37:40.860Z,97014.83
2018-05-10T09:40:10.390Z,97017.69
2018-05-10T09:42:40.154Z,97016.55
2018-05-10T09:45:09.973Z,97011.34
2018-05-10T09:47:40.552Z,97013.28
2018-05-10T09:50:11.000Z,97010.88
2018-05-10T09:52:43.100Z,97013.20
2018-05-10T09:55:17.565Z,97011.31
2018-05-10T09:57:49.142Z,97007.78
2018-05-10T10:00:27.158Z,97008.79
2018-05-10T10:02:58.111Z,96995.34
2018-05-10T10:05:28.272Z,97001.17
2018-05-10T10:08:47.812Z,96999.95
2018-05-10T10:11:17.522Z,96995.35
2018-05-10T10:14:01.161Z,96993.41
2018-05-10T10:16:32.136Z,96992.10
2018-05-10T10:19:50.531Z,97000.38
2018-05-10T10:29:18.741Z,96996.84
2018-05-10T10:31:50.545Z,96995.56
2018-05-10T10:34:32.008Z,96985.20
2018-05-10T10:37:02.442Z,96992.52
2018-05-10T10:52:04.519Z,96982.00
2018-05-10T10:54:34.326Z,96980.56
2018-05-10T10:57:04.012Z,96982.80
2018-05-10T10:59:33.755Z,96983.53
2018-05-10T11:02:03.262Z,96993.82
2018-05-10T11:04:34.261Z,96991.98
2018-05-10T11:07:04.495Z,96992.48
2018-05-10T11:09:36.703Z,96993.02
2018-05-10T11:12:07.525Z,96989.34
2018-05-10T11:14:37.021Z,96991.54
2018-05-10T11:17:20.529Z,96998.14
2018-05-10T11:19:50.993Z,96994.18
2018-05-10T11:22:20.549Z,96992.93
2018-05-10T11:24:55.778Z,96987.32
2018-05-10T11:27:28.711Z,96984.05
2018-05-10T11:29:59.393Z,96981.19
2018-05-10T11:32:29.053Z,96971.27
2018-05-10T11:34:58.743Z,96973.66
2018-05-10T11:37:28.347Z,96981.11
2018-05-10T11:39:59.155Z,96982.48
2018-05-10T11:42:28.853Z,96980.75
2018-05-10T11:44:58.470Z,96973.77
2018-05-10T11:47:27.929Z,96970.75
2018-05-10T11:49:57.509Z,96973.73
2018-05-10T11:52:27.764Z,96982.82
2018-05-10T11:54:57.478Z,96987.05
2018-05-10T11:57:27.122Z,96984.03
2018-05-10T11:59:58.052Z,96984.47
2018-05-10T12:02:27.683Z,96975.98
2018-05-10T12:04:58.080Z,96976.58
2018-05-10T12:07:27.786Z,96978.39
2018-05-10T12:09:57.485Z,96990.23
2018-05-10T12:12:27.239Z,96999.14
2018-05-10T12:15:31.696Z,96993.03
2018-05-10T12:18:01.532Z,96992.66
2018-05-10T12:20:31.277Z,96983.00
2018-05-10T12:23:03.147Z,96983.77
2018-05-10T12:25:33.486Z,96993.10
2018-05-10T12:28:03.722Z,97003.28
2018-05-10T12:30:33.495Z,97009.38
2018-05-10T12:33:03.381Z,97013.45
2018-05-10T12:35:33.872Z,97009.23
2018-05-10T12:38:03.516Z,97010.92
2018-05-10T12:40:33.086Z,97011.20
2018-05-10T12:43:04.176Z,97009.41
2018-05-10T12:45:33.877Z,97006.31
2018-05-10T12:48:04.268Z,97005.17
2018-05-10T12:50:33.885Z,96988.14
2018-05-10T12:53:03.671Z,96994.05
2018-05-10T12:55:34.100Z,97000.52
2018-05-10T12:58:04.457Z,97008.23
2018-05-10T13:00:33.970Z,97011.95
2018-05-10T13:03:04.637Z,97012.73
2018-05-10T13:05:42.413Z,97012.32
2018-05-10T13:08:13.043Z,97017.42
2018-05-10T13:10:43.011Z,97015.11
2018-05-10T13:13:13.271Z,97013.54
2018-05-10T13:15:43.001Z,97012.41
2018-05-10T13:18:12.896Z,97013.56
2018-05-10T13:20:44.179Z,97006.53
2018-05-10T13:23:13.854Z,97012.48
2018-05-10T13:25:43.903Z,97012.41
2018-05-10T13:28:14.319Z,97010.41
2018-05-10T13:30:44.798Z,97009.92
2018-05-10T13:33:15.303Z,97012.82
2018-05-10T13:35:44.854Z,97014.98
2018-05-10T13:38:14.502Z,97020.32
2018-05-10T13:40:44.114Z,97016.65
2018-05-10T13:43:13.632Z,97013.08
2018-05-10T13:45:43.133Z,97011.99
2018-05-10T13:48:13.951Z,97018.51
2018-05-10T13:50:43.575Z,97023.05
2018-05-10T13:53:13.073Z,97027.22
2018-05-10T13:55:42.814Z,97035.06
2018-05-10T13:58:13.270Z,97036.42
2018-05-10T14:00:43.604Z,97039.28
2018-05-10T14:03:13.213Z,97033.22
2018-05-10T14:05:43.376Z,97035.11
2018-05-10T14:08:13.040Z,97037.20
2018-05-10T14:10:42.807Z,97037.84
2018-05-10T14:13:12.385Z,97035.77
2018-05-10T14:15:41.941Z,97036.21
2018-05-10T14:18:12.329Z,97036.58
2018-05-10T14:20:43.160Z,97035.69
2018-05-10T14:23:12.698Z,97038.45
2018-05-10T14:25:42.685Z,97033.52
2018-05-10T14:28:22.333Z,97031.05
2018-05-10T14:30:52.659Z,97029.30
2018-05-10T14:33:22.284Z,97032.64
2018-05-10T14:35:52.450Z,97032.30
2018-05-10T14:38:25.979Z,97035.87
2018-05-10T14:40:56.738Z,97040.47
2018-05-10T14:43:26.273Z,97047.64
2018-05-10T14:45:57.773Z,97049.33
2018-05-10T14:48:27.801Z,97054.09
2018-05-10T14:50:57.338Z,97058.57
2018-05-10T14:53:27.125Z,97059.01
2018-05-10T14:55:58.259Z,97061.23
2018-05-10T14:58:28.013Z,97056.19
2018-05-10T15:00:58.700Z,97062.39
2018-05-10T15:03:28.418Z,97060.16
2018-05-10T15:05:57.943Z,97056.30
2018-05-10T15:08:27.492Z,97065.53
2018-05-10T15:10:57.247Z,97067.68
2018-05-10T15:13:28.359Z,97067.81
2018-05-10T15:15:57.952Z,97068.09
2018-05-10T15:18:27.456Z,97068.48
2018-05-10T15:20:57.804Z,97072.23
2018-05-10T15:23:27.588Z,97067.94
2018-05-10T15:25:58.170Z,97071.58
2018-05-10T15:28:27.753Z,97073.05
2018-05-10T15:30:57.615Z,97077.90
2018-05-10T15:33:28.661Z,97080.80
2018-05-10T15:36:00.515Z,97074.64
2018-05-10T15:38:31.041Z,97075.61
2018-05-10T15:41:00.794Z,97083.68
2018-05-10T15:43:31.163Z,97080.41
2018-05-10T15:46:00.875Z,97082.73
2018-05-10T15:48:31.089Z,97090.97
2018-05-10T15:51:00.641Z,97092.47
2018-05-10T15:53:31.134Z,97090.13
2018-05-10T15:56:03.514Z,97092.82
2018-05-10T15:58:33.395Z,97088.91
2018-05-10T16:01:03.209Z,97092.50
2018-05-10T16:03:32.834Z,97092.35
2018-05-10T16:06:02.731Z,97084.04
2018-05-10T16:08:32.668Z,97085.00
2018-05-10T16:11:02.468Z,97078.12
2018-05-10T16:13:32.092Z,97073.05
2018-05-10T16:16:02.046Z,97070.50
2018-05-10T16:18:34.189Z,97077.03
2018-05-10T16:21:04.036Z,97075.05
2018-05-10T16:23:35.466Z,97074.84
2018-05-10T16:26:05.044Z,97071.27
2018-05-10T16:28:34.779Z,97072.28
2018-05-10T16:31:04.559Z,97078.21
2018-05-10T16:33:34.659Z,97081.20
2018-05-10T16:36:04.963Z,97078.22
2018-05-10T16:38:35.318Z,97085.16
2018-05-10T16:41:04.968Z,97087.64
2018-05-10T16:43:35.081Z,97080.32
2018-05-10T16:46:04.890Z,97079.32
2018-05-10T16:48:36.696Z,97083.14
2018-05-10T16:51:07.177Z,97088.81
2018-05-10T16:53:36.897Z,97091.32
2018-05-10T16:56:06.633Z,97094.00
2018-05-10T16:58:37.514Z,97093.81
2018-05-10T17:01:36.097Z,97104.08
2018-05-10T17:08:20.821Z,97106.34
2018-05-10T17:10:54.170Z,97114.58
2018-05-10T17:13:23.962Z,97117.03
2018-05-10T17:15:53.736Z,97120.97
2018-05-10T17:18:23.420Z,97117.73
2018-05-10T17:20:52.944Z,97124.41
2018-05-10T17:23:23.416Z,97123.92
2018-05-10T17:25:53.210Z,97120.20
2018-05-10T17:28:23.454Z,97137.41
2018-05-10T17:30:53.943Z,97128.30
2018-05-10T17:33:23.685Z,97134.28
2018-05-10T17:35:54.831Z,97129.04
2018-05-10T17:38:24.389Z,97125.88
2018-05-10T17:40:54.091Z,97128.73
2018-05-10T17:43:23.834Z,97133.46
2018-05-10T17:45:53.331Z,97130.36
2018-05-10T17:48:23.013Z,97143.36
2018-05-10T17:50:52.972Z,97147.75
2018-05-10T17:53:22.663Z,97152.24
2018-05-10T17:55:52.684Z,97155.73
2018-05-10T17:58:22.455Z,97152.86
2018-05-10T18:00:53.642Z,97162.03
2018-05-10T18:03:23.165Z,97162.17
2018-05-10T18:05:53.497Z,97164.30
2018-05-10T18:08:33.532Z,97162.43
2018-05-10T18:11:03.239Z,97164.42
2018-05-10T18:13:32.896Z,97163.17
2018-05-10T18:16:03.270Z,97166.48
2018-05-10T18:18:33.005Z,97158.83
2018-05-10T18:21:02.873Z,97163.98
2018-05-10T18:23:32.708Z,97170.00
2018-05-10T18:26:10.223Z,97170.45
2018-05-10T18:28:39.920Z,97181.86
2018-05-10T18:31:09.647Z,97187.43
2018-05-10T18:33:39.355Z,97188.09
2018-05-10T18:36:09.172Z,97193.19
2018-05-10T18:38:38.921Z,97200.25
2018-05-10T18:41:09.874Z,97203.42
2018-05-10T18:43:40.243Z,97209.94
2018-05-10T18:46:11.190Z,97212.77
2018-05-10T18:48:42.026Z,97211.94
2018-05-10T18:51:11.747Z,97218.99
2018-05-10T18:53:42.389Z,97219.05
2018-05-10T18:56:12.124Z,97226.81
2018-05-10T18:58:42.808Z,97227.57
2018-05-10T19:01:13.217Z,97224.38
2018-05-10T19:03:43.372Z,97230.12
2018-05-10T19:06:13.893Z,97237.96
2018-05-10T19:08:44.543Z,97237.06
2018-05-10T19:11:14.188Z,97241.23
2018-05-10T19:13:44.983Z,97251.50
2018-05-10T19:16:14.808Z,97258.95
2018-05-10T19:18:44.585Z,97257.45
2018-05-10T19:21:14.197Z,97267.53
2018-05-10T19:23:43.896Z,97266.83
2018-05-10T19:26:13.503Z,97266.59
2018-05-10T19:28:43.147Z,97266.70
2018-05-10T19:31:12.666Z,97271.23
2018-05-10T19:33:44.663Z,97277.95
2018-05-10T19:36:15.199Z,97276.47
2018-05-10T19:38:44.944Z,97280.55
2018-05-10T19:41:16.204Z,97280.80
2018-05-10T19:43:45.957Z,97283.12
2018-05-10T19:46:16.646Z,97282.84
2018-05-10T19:48:46.427Z,97289.72
2018-05-10T19:51:16.224Z,97285.33
2018-05-10T19:53:46.056Z,97287.60
2018-05-10T19:56:15.876Z,97281.64
2018-05-10T19:58:45.791Z,97278.33
2018-05-10T20:01:15.511Z,97280.34
2018-05-10T20:03:45.561Z,97284.61
2018-05-10T20:06:19.470Z,97283.25
2018-05-10T20:08:51.197Z,97280.28
2018-05-10T20:11:21.410Z,97286.11
2018-05-10T20:13:51.510Z,97296.45
2018-05-10T20:16:21.333Z,97303.66
2018-05-10T20:18:51.206Z,97309.68
2018-05-10T20:21:21.818Z,97310.14
2018-05-10T20:23:54.412Z,97312.48
2018-05-10T20:26:26.522Z,97313.62
2018-05-10T20:28:57.778Z,97312.95
2018-05-10T20:31:28.781Z,97325.03
2018-05-10T20:33:59.360Z,97333.32
2018-05-10T20:36:29.326Z,97334.13
2018-05-10T20:38:59.069Z,97331.43
2018-05-10T20:41:28.935Z,97335.89
2018-05-10T20:43:58.481Z,97337.78
2018-05-10T20:46:29.029Z,97340.89
2018-05-10T20:48:58.744Z,97342.93
2018-05-10T20:51:28.726Z,97348.89
2018-05-10T20:54:01.016Z,97346.84
2018-05-10T20:56:31.862Z,97346.33
2018-05-10T20:59:02.550Z,97352.69
2018-05-10T21:01:32.553Z,97346.05
2018-05-10T21:04:02.337Z,97344.67
2018-05-10T21:06:32.822Z,97351.72
2018-05-10T21:09:08.427Z,97351.15
2018-05-10T21:11:38.333Z,97355.65
2018-05-10T21:14:08.111Z,97358.63
2018-05-10T21:16:38.250Z,97358.64
2018-05-10T21:19:08.079Z,97361.33
2018-05-10T21:21:44.582Z,97363.51
2018-05-10T21:24:15.411Z,97364.62
2018-05-10T21:26:45.067Z,97362.58
2018-05-10T21:29:15.485Z,97367.45
2018-05-10T21:31:45.285Z,97363.95
2018-05-10T21:34:15.741Z,97372.07
2018-05-10T21:36:47.069Z,97375.03
2018-05-10T21:39:16.779Z,97376.38
2018-05-10T21:41:48.481Z,97381.08
2018-05-10T21:44:19.997Z,97380.67
2018-05-10T21:46:51.158Z,97374.47
2018-05-10T21:49:38.997Z,97377.74
2018-05-10T21:52:08.724Z,97380.59
2018-05-10T21:54:38.486Z,97386.14
2018-05-10T21:57:09.350Z,97386.95
2018-05-10T21:59:39.187Z,97385.75
2018-05-10T22:02:09.918Z,97390.36
2018-05-10T22:04:39.682Z,97390.91
2018-05-10T22:07:09.414Z,97391.95
2018-05-10T22:09:38.969Z,97392.64
2018-05-10T22:12:18.508Z,97392.91
2018-05-10T22:14:48.081Z,97392.38
2018-05-10T22:17:19.964Z,97393.86
2018-05-10T22:19:51.223Z,97387.63
2018-05-10T22:22:35.024Z,97396.19
2018-05-10T22:25:04.791Z,97396.70
2018-05-10T22:27:34.676Z,97400.64
2018-05-10T22:30:04.542Z,97400.23
2018-05-10T22:32:34.834Z,97402.53
2018-05-10T22:35:04.494Z,97405.77
2018-05-10T22:37:34.338Z,97405.66
2018-05-10T22:40:04.323Z,97398.74
2018-05-10T22:42:34.032Z,97410.67
2018-05-10T22:45:03.675Z,97407.09
2018-05-10T22:47:34.810Z,97406.97
2018-05-10T22:50:04.596Z,97401.67
2018-05-10T22:52:34.450Z,97407.63
2018-05-10T22:55:04.266Z,97402.34
2018-05-10T22:57:34.046Z,97400.52
2018-05-10T23:00:03.576Z,97411.32
2018-05-10T23:02:34.445Z,97405.13
2018-05-10T23:05:05.024Z,97405.78
2018-05-10T23:07:34.869Z,97394.31
2018-05-10T23:10:05.506Z,97396.65
2018-05-10T23:12:35.212Z,97399.09
2018-05-10T23:15:04.954Z,97402.84
2018-05-10T23:17:35.485Z,97398.22
2018-05-10T23:20:05.834Z,97402.81
2018-05-10T23:22:36.612Z,97402.83
2018-05-10T23:25:08.380Z,97401.58
2018-05-10T23:27:38.774Z,97401.87
2018-05-10T23:30:08.609Z,97398.75
2018-05-10T23:32:38.232Z,97406.18
2018-05-10T23:35:07.810Z,97401.58
2018-05-10T23:37:38.361Z,97406.17
2018-05-10T23:40:09.287Z,97404.94
2018-05-10T23:42:38.827Z,97408.63
2018-05-10T23:45:08.395Z,97401.87
2018-05-10T23:47:38.009Z,97401.30
2018-05-10T23:50:11.989Z,97409.30
2018-05-10T23:52:43.754Z,97402.31
2018-05-10T23:55:16.614Z,97400.53
2018-05-10T23:57:47.083Z,97404.72
